Time;durP1;ratioP1;P1;durP2;ratioP2;P2;SDS_P1;SDS_P2;PMS_P1;PMS_P2;Temp;Humidity;BMP_temperature;BMP_pressure;BME280_temperature;BME280_humidity;BME280_pressure;Samples;Min_cycle;Max_cycle;Signal;HPM_P1;HPM_P2
2021/10/03 00:02:37;;;;;;;16.10;11.50;;;;;;;9.38;74.49;98889.85;235980;1199;23661;-73
2021/10/03 00:07:45;;;;;;;15.20;10.10;;;;;;;9.34;74.48;98890.89;235760;1194;24130;-70
2021/10/03 00:13:03;;;;;;;17.40;9.80;;;;;;;9.32;74.45;98888.28;235792;1199;22503;-73
2021/10/03 00:18:28;;;;;;;16.10;10.80;;;;;;;9.35;74.78;98877.23;235304;1200;24184;-73
2021/10/03 00:23:34;;;;;;;16.70;11.90;;;;;;;9.38;74.92;98873.58;235908;1187;24131;-73
2021/10/03 00:28:37;;;;;;;15.40;10.70;;;;;;;9.37;74.68;98870.22;235735;1199;24094;-71
2021/10/03 00:33:44;;;;;;;13.40;9.70;;;;;;;9.33;74.54;98869.98;235908;1192;25106;-71
2021/10/03 00:38:47;;;;;;;17.60;10.50;;;;;;;9.29;74.63;98863.23;235545;1193;24042;-71
2021/10/03 00:43:50;;;;;;;20.90;12.40;;;;;;;9.28;74.84;98865.84;235571;1193;24152;-71
2021/10/03 00:49:06;;;;;;;21.40;11.60;;;;;;;9.23;74.79;98863.21;235733;1200;24082;-73
2021/10/03 00:54:17;;;;;;;17.60;10.00;;;;;;;9.18;74.75;98864.52;235654;1200;25327;-72
2021/10/03 00:59:20;;;;;;;18.90;12.20;;;;;;;9.18;75.06;98862.81;235612;1193;24123;-72
2021/10/03 01:04:23;;;;;;;18.20;13.20;;;;;;;9.19;75.22;98862.27;235743;1199;22500;-71
2021/10/03 01:09:30;;;;;;;22.40;13.20;;;;;;;9.18;74.98;98856.73;235599;1199;26313;-73
2021/10/03 01:14:34;;;;;;;21.90;12.50;;;;;;;9.09;74.79;98847.67;235615;1199;24061;-73
2021/10/03 01:19:41;;;;;;;21.30;14.40;;;;;;;9.02;74.95;98836.77;235291;1200;24248;-72
2021/10/03 01:24:44;;;;;;;19.60;14.10;;;;;;;8.87;74.78;98836.59;236035;1193;24088;-71
2021/10/03 01:29:51;;;;;;;24.80;13.40;;;;;;;8.71;74.85;98832.02;235479;1199;24051;-73
2021/10/03 01:34:54;;;;;;;20.10;13.00;;;;;;;8.58;74.97;98829.30;235676;1199;22420;-72
2021/10/03 01:39:56;;;;;;;20.70;14.00;;;;;;;8.47;75.10;98819.40;235887;1193;22564;-72
2021/10/03 01:45:00;;;;;;;21.90;14.40;;;;;;;8.37;75.38;98813.11;235406;1199;24123;-71
2021/10/03 01:50:03;;;;;;;21.20;13.70;;;;;;;8.26;75.38;98807.33;235807;1199;24079;-70
2021/10/03 01:55:06;;;;;;;18.40;13.30;;;;;;;8.15;75.36;98806.45;235654;1200;24046;-71
2021/10/03 02:00:09;;;;;;;25.70;13.60;;;;;;;8.07;75.40;98804.88;235492;1199;25036;-71
2021/10/03 02:05:12;;;;;;;26.30;15.90;;;;;;;7.97;75.69;98800.15;235897;1199;22527;-73
2021/10/03 02:10:21;;;;;;;25.40;14.70;;;;;;;7.92;75.90;98793.80;235740;1199;24234;-73
2021/10/03 02:15:35;;;;;;;21.10;14.00;;;;;;;7.86;76.21;98793.76;235765;1200;24145;-73
2021/10/03 02:20:39;;;;;;;26.50;15.00;;;;;;;7.89;76.53;98789.92;235855;1199;22545;-71
2021/10/03 02:25:45;;;;;;;20.90;13.80;;;;;;;7.92;76.98;98787.77;235706;1200;24477;-73
2021/10/03 02:30:51;;;;;;;25.80;15.20;;;;;;;7.94;76.86;98785.54;235764;1199;24835;-72
2021/10/03 02:35:55;;;;;;;21.30;14.10;;;;;;;7.87;76.66;98777.61;235666;1199;22477;-71
2021/10/03 02:41:00;;;;;;;23.70;15.20;;;;;;;7.85;76.94;98781.61;235321;1199;22502;-72
2021/10/03 02:46:04;;;;;;;21.50;15.10;;;;;;;7.86;77.13;98783.16;235894;1199;22529;-71
2021/10/03 02:51:07;;;;;;;22.00;14.90;;;;;;;7.85;77.21;98784.27;235945;1199;22414;-71
2021/10/03 02:56:32;;;;;;;22.80;14.20;;;;;;;7.81;77.02;98784.02;235774;1186;24130;-72
2021/10/03 03:01:55;;;;;;;24.30;14.20;;;;;;;7.79;77.04;98781.57;235505;1200;24276;-71
2021/10/03 03:06:57;;;;;;;29.20;16.20;;;;;;;7.73;77.23;98782.37;235767;1200;23956;-71
2021/10/03 03:12:13;;;;;;;31.30;16.30;;;;;;;7.69;77.24;98775.45;235869;1196;25782;-73
2021/10/03 03:17:19;;;;;;;24.80;14.60;;;;;;;7.68;77.41;98761.10;235837;1200;24603;-70
2021/10/03 03:22:22;;;;;;;29.40;15.50;;;;;;;7.72;77.41;98761.09;235899;1200;22500;-71
2021/10/03 03:27:24;;;;;;;23.70;14.50;;;;;;;7.78;77.68;98757.23;235865;1199;24086;-71
2021/10/03 03:32:28;;;;;;;20.80;13.40;;;;;;;7.81;77.43;98764.65;235765;1200;25308;-74
2021/10/03 03:37:31;;;;;;;19.40;13.00;;;;;;;7.82;77.26;98760.12;235572;1193;25198;-71
2021/10/03 03:42:33;;;;;;;22.00;13.50;;;;;;;7.80;77.10;98758.41;235826;1194;24070;-73
2021/10/03 03:47:37;;;;;;;19.60;12.80;;;;;;;7.71;77.07;98764.66;235895;1193;24130;-73
2021/10/03 03:52:41;;;;;;;20.20;14.00;;;;;;;7.63;77.05;98770.45;236166;1193;24024;-71
2021/10/03 03:57:44;;;;;;;19.20;12.40;;;;;;;7.56;77.11;98776.20;236030;1199;22476;-71
2021/10/03 04:02:47;;;;;;;21.30;14.10;;;;;;;7.52;77.22;98766.40;235883;1199;25198;-72
2021/10/03 04:07:50;;;;;;;19.60;14.10;;;;;;;7.51;77.37;98759.32;236139;1192;24058;-72
2021/10/03 04:12:53;;;;;;;19.00;13.00;;;;;;;7.48;77.53;98757.83;235682;1200;24054;-71
2021/10/03 04:17:57;;;;;;;19.70;11.80;;;;;;;7.50;77.63;98761.60;235825;1200;24079;-73
2021/10/03 04:23:00;;;;;;;19.90;13.80;;;;;;;7.53;77.44;98760.06;235585;1195;23985;-73
2021/10/03 04:28:03;;;;;;;19.00;12.30;;;;;;;7.53;77.81;98761.48;235807;1199;23084;-73
2021/10/03 04:33:11;;;;;;;18.60;12.20;;;;;;;7.50;77.61;98764.28;235925;1199;24085;-71
2021/10/03 04:38:13;;;;;;;18.40;11.80;;;;;;;7.48;77.44;98762.30;236022;1199;22432;-73
2021/10/03 04:43:17;;;;;;;16.50;11.30;;;;;;;7.50;77.27;98759.52;236133;1199;25152;-73
2021/10/03 04:48:20;;;;;;;16.60;10.80;;;;;;;7.55;77.48;98765.88;235963;1200;25202;-71
2021/10/03 04:53:22;;;;;;;20.20;11.20;;;;;;;7.62;77.50;98758.19;235625;1200;22533;-73
2021/10/03 04:58:38;;;;;;;18.00;10.80;;;;;;;7.69;77.33;98756.73;235422;1200;25108;-71
2021/10/03 05:03:57;;;;;;;17.90;12.00;;;;;;;7.81;77.53;98755.70;235325;1199;25016;-73
2021/10/03 05:09:01;;;;;;;16.60;11.70;;;;;;;7.93;77.48;98753.58;236077;1199;24136;-73
2021/10/03 05:14:07;;;;;;;19.40;11.20;;;;;;;8.07;77.36;98752.48;235793;1193;24124;-71
2021/10/03 05:19:09;;;;;;;15.40;10.90;;;;;;;8.21;77.14;98749.92;235658;1199;22434;-73
2021/10/03 05:24:11;;;;;;;17.30;11.80;;;;;;;8.35;77.10;98747.35;236067;1199;22517;-71
2021/10/03 05:29:14;;;;;;;16.60;11.20;;;;;;;8.44;76.86;98742.46;236004;1199;24044;-71
2021/10/03 05:34:17;;;;;;;16.50;11.30;;;;;;;8.50;76.56;98736.04;235977;1194;26155;-70
2021/10/03 05:39:20;;;;;;;18.00;10.80;;;;;;;8.62;76.43;98737.69;236115;1199;24060;-71
2021/10/03 05:44:23;;;;;;;15.50;10.40;;;;;;;8.76;76.35;98740.48;236136;1199;24057;-73
2021/10/03 05:49:26;;;;;;;16.30;10.90;;;;;;;8.93;76.42;98734.02;235521;1193;24056;-72
2021/10/03 05:54:36;;;;;;;15.50;9.40;;;;;;;9.11;76.39;98731.85;236174;1199;22444;-73
2021/10/03 05:59:59;;;;;;;13.40;10.60;;;;;;;9.39;76.42;98739.27;235564;1200;22467;-74
2021/10/03 06:05:02;;;;;;;13.10;10.30;;;;;;;9.66;76.51;98748.10;235482;1199;24065;-71
2021/10/03 06:10:07;;;;;;;15.60;10.50;;;;;;;9.91;76.21;98745.55;236040;1199;24112;-73
2021/10/03 06:15:11;;;;;;;12.70;8.70;;;;;;;10.11;75.99;98744.26;235855;1200;22654;-72
2021/10/03 06:20:14;;;;;;;9.00;6.80;;;;;;;10.36;75.79;98741.77;236069;1199;22442;-72
2021/10/03 06:25:17;;;;;;;16.90;12.90;;;;;;;10.71;75.69;98739.02;235771;1193;22437;-73
2021/10/03 06:30:20;;;;;;;15.40;11.00;;;;;;;11.03;75.43;98737.05;235970;1194;24091;-71
2021/10/03 06:35:23;;;;;;;13.90;10.50;;;;;;;11.24;74.99;98738.16;235848;1192;24020;-74
2021/10/03 06:40:27;;;;;;;13.50;7.90;;;;;;;11.46;74.71;98735.66;236088;1199;22416;-71
2021/10/03 06:45:30;;;;;;;10.00;7.50;;;;;;;11.79;74.22;98726.64;236283;1199;23181;-71
2021/10/03 06:50:32;;;;;;;10.90;7.90;;;;;;;12.21;73.50;98721.98;236178;1199;24076;-73
2021/10/03 06:55:36;;;;;;;10.90;7.70;;;;;;;12.57;72.79;98721.77;235822;1199;24018;-74
2021/10/03 07:00:39;;;;;;;8.30;5.60;;;;;;;12.80;71.99;98723.13;236133;1199;22461;-73
2021/10/03 07:05:43;;;;;;;9.90;6.10;;;;;;;13.00;71.17;98731.23;235674;1192;22551;-71
2021/10/03 07:10:46;;;;;;;8.00;6.40;;;;;;;13.22;70.44;98731.89;236191;1199;22436;-73
2021/10/03 07:15:51;;;;;;;7.70;6.60;;;;;;;13.32;69.72;98735.25;236146;1199;22461;-72
2021/10/03 07:20:55;;;;;;;8.90;6.50;;;;;;;13.35;69.33;98738.42;235873;1193;22435;-73
2021/10/03 07:25:57;;;;;;;8.40;6.40;;;;;;;13.38;68.89;98736.48;236074;1199;22406;-73
2021/10/03 07:31:01;;;;;;;8.50;5.10;;;;;;;13.46;68.62;98729.65;235538;1193;24072;-72
2021/10/03 07:36:04;;;;;;;7.60;5.50;;;;;;;13.66;68.21;98730.10;236429;1198;24057;-73
2021/10/03 07:41:06;;;;;;;9.30;6.10;;;;;;;13.90;67.85;98720.27;236176;1193;24287;-73
2021/10/03 07:46:12;;;;;;;8.80;5.50;;;;;;;14.17;67.45;98720.66;236009;1197;22461;-71
2021/10/03 07:51:15;;;;;;;7.50;6.10;;;;;;;14.43;67.03;98729.48;236298;1199;25220;-71
2021/10/03 07:56:26;;;;;;;8.70;6.20;;;;;;;14.66;66.32;98729.70;235673;1187;24054;-72
2021/10/03 08:01:36;;;;;;;8.70;6.00;;;;;;;14.91;65.96;98730.27;236113;1193;22458;-74
2021/10/03 08:06:40;;;;;;;7.40;6.10;;;;;;;15.15;65.06;98729.31;235827;1199;22676;-73
2021/10/03 08:11:43;;;;;;;6.90;5.10;;;;;;;15.41;64.38;98727.58;236211;1199;24082;-71
2021/10/03 08:16:47;;;;;;;5.60;4.90;;;;;;;15.66;63.71;98717.69;235873;1199;22457;-71
2021/10/03 08:21:50;;;;;;;6.50;5.40;;;;;;;15.89;63.10;98714.16;235916;1192;24016;-73
2021/10/03 08:26:52;;;;;;;7.30;5.80;;;;;;;16.09;62.92;98716.67;235456;1193;24229;-74
2021/10/03 08:31:55;;;;;;;7.40;6.10;;;;;;;16.22;62.10;98709.83;235927;1187;26933;-73
2021/10/03 08:36:57;;;;;;;9.10;5.70;;;;;;;16.29;61.33;98701.61;235018;1201;24053;-74
2021/10/03 08:42:03;;;;;;;7.90;6.00;;;;;;;16.42;61.52;98689.50;235818;1196;24102;-74
2021/10/03 08:47:06;;;;;;;8.90;5.80;;;;;;;16.52;61.33;98688.95;235741;1193;25312;-76
2021/10/03 08:52:09;;;;;;;8.00;5.10;;;;;;;16.63;61.15;98683.08;235883;1186;24233;-76
2021/10/03 08:57:12;;;;;;;6.80;5.10;;;;;;;16.71;60.77;98681.97;235881;1200;22576;-75
2021/10/03 09:02:14;;;;;;;5.70;4.70;;;;;;;16.74;60.18;98681.46;235606;1200;22896;-74
2021/10/03 09:07:17;;;;;;;6.90;5.20;;;;;;;16.77;59.81;98688.15;236452;1199;24381;-74
2021/10/03 09:12:26;;;;;;;5.60;4.90;;;;;;;16.90;60.07;98684.75;236595;1199;24041;-74
2021/10/03 09:17:31;;;;;;;6.30;4.60;;;;;;;17.10;59.81;98686.09;235641;1200;22456;-74
2021/10/03 09:22:53;;;;;;;7.50;5.80;;;;;;;17.30;59.41;98685.38;235624;1186;22425;-74
2021/10/03 09:27:55;;;;;;;5.60;4.30;;;;;;;17.55;58.80;98680.55;235696;1193;25014;-75
2021/10/03 09:33:00;;;;;;;6.10;4.00;;;;;;;17.77;58.68;98679.86;236431;1199;24120;-75
2021/10/03 09:38:08;;;;;;;5.30;4.20;;;;;;;17.97;58.28;98668.13;236184;1199;24479;-74
2021/10/03 09:43:13;;;;;;;5.80;4.40;;;;;;;18.22;58.59;98662.30;235903;1199;25057;-73
2021/10/03 09:48:16;;;;;;;7.50;4.20;;;;;;;18.48;58.04;98662.43;235762;1200;24203;-72
2021/10/03 09:53:20;;;;;;;4.10;3.70;;;;;;;18.67;57.55;98661.80;235769;1199;22482;-74
2021/10/03 09:58:23;;;;;;;4.70;3.60;;;;;;;18.87;56.80;98658.41;236103;1200;22502;-73
2021/10/03 10:03:27;;;;;;;4.10;3.70;;;;;;;19.06;56.27;98648.84;236031;1199;22446;-74
2021/10/03 10:08:32;;;;;;;5.60;3.70;;;;;;;19.22;55.70;98647.69;236047;1199;22561;-73
2021/10/03 10:13:36;;;;;;;5.70;3.80;;;;;;;19.38;55.57;98648.08;235741;1193;22461;-74
2021/10/03 10:18:40;;;;;;;4.00;3.60;;;;;;;19.49;54.57;98643.45;235601;1200;24059;-74
2021/10/03 10:23:44;;;;;;;4.60;3.30;;;;;;;19.50;54.09;98640.77;235568;1200;22428;-75
2021/10/03 10:28:48;;;;;;;4.40;3.70;;;;;;;19.46;53.88;98640.90;236044;1193;24072;-74
2021/10/03 10:33:51;;;;;;;4.30;3.90;;;;;;;19.49;53.72;98634.23;236465;1198;25323;-74
2021/10/03 10:39:09;;;;;;;5.10;3.80;;;;;;;19.59;53.40;98626.93;235962;1199;24053;-73
2021/10/03 10:44:24;;;;;;;5.50;4.10;;;;;;;19.73;53.24;98623.05;236087;1199;22463;-72
2021/10/03 10:49:41;;;;;;;4.40;3.80;;;;;;;19.85;52.72;98618.17;236467;1199;24603;-74
2021/10/03 10:54:59;;;;;;;3.50;3.20;;;;;;;19.98;52.61;98611.15;236367;1193;22431;-74
2021/10/03 11:00:35;;;;;;;4.90;3.60;;;;;;;20.11;52.20;98601.79;236336;1199;26189;-74
2021/10/03 11:05:58;;;;;;;6.00;3.60;;;;;;;20.20;51.73;98595.37;235856;1199;24195;-72
2021/10/03 11:11:01;;;;;;;5.70;4.10;;;;;;;20.30;51.84;98588.50;235924;1199;22446;-72
2021/10/03 11:16:44;;;;;;;5.00;3.30;;;;;;;20.44;51.70;98586.62;236496;1199;25305;-72
2021/10/03 11:21:52;;;;;;;4.90;4.00;;;;;;;20.60;51.37;98585.06;235782;1199;22526;-74
2021/10/03 11:27:01;;;;;;;3.80;3.40;;;;;;;20.74;51.06;98575.85;236255;1199;25133;-73
2021/10/03 11:32:09;;;;;;;4.60;4.00;;;;;;;20.85;50.77;98574.95;236430;1199;22667;-73
2021/10/03 11:37:37;;;;;;;7.40;3.90;;;;;;;20.90;50.22;98572.97;235637;1200;22449;-73
2021/10/03 11:42:47;;;;;;;4.50;3.70;;;;;;;20.95;49.65;98566.57;235597;1200;22436;-72
2021/10/03 11:47:56;;;;;;;5.40;4.10;;;;;;;20.94;49.75;98565.70;235616;1200;22453;-73
2021/10/03 11:53:20;;;;;;;3.70;3.20;;;;;;;20.99;49.90;98558.49;235788;1193;24122;-74
2021/10/03 11:58:23;;;;;;;4.60;3.40;;;;;;;21.10;49.97;98556.79;235639;1193;22428;-71
2021/10/03 12:03:33;;;;;;;4.40;4.00;;;;;;;21.15;49.67;98552.66;235482;1200;23989;-72
2021/10/03 12:08:40;;;;;;;4.00;3.60;;;;;;;21.21;49.66;98547.23;235690;1200;25215;-74
2021/10/03 12:13:55;;;;;;;7.20;3.90;;;;;;;21.29;49.59;98546.67;235289;1200;24138;-74
2021/10/03 12:19:02;;;;;;;4.70;4.00;;;;;;;21.35;49.25;98540.91;235455;1192;24073;-74
2021/10/03 12:24:09;;;;;;;4.10;3.10;;;;;;;21.36;48.90;98537.51;235561;1193;24056;-73
2021/10/03 12:29:26;;;;;;;4.80;3.30;;;;;;;21.41;49.00;98534.70;235920;1193;22499;-74
2021/10/03 12:34:31;;;;;;;4.60;3.10;;;;;;;21.48;48.93;98531.39;235426;1199;22437;-73
2021/10/03 12:39:57;;;;;;;3.90;3.50;;;;;;;21.52;48.52;98533.40;235413;1200;24066;-73
2021/10/03 12:45:00;;;;;;;2.90;2.60;;;;;;;21.53;48.49;98534.13;235216;1200;25497;-74
2021/10/03 12:50:04;;;;;;;5.30;2.80;;;;;;;21.54;48.56;98533.98;235976;1199;23664;-73
2021/10/03 12:55:07;;;;;;;3.30;3.00;;;;;;;21.57;48.45;98526.55;235814;1193;22488;-74
2021/10/03 13:00:12;;;;;;;5.00;3.00;;;;;;;21.59;48.10;98521.36;235900;1178;22565;-74
2021/10/03 13:05:18;;;;;;;4.20;3.40;;;;;;;21.58;48.16;98518.31;236165;1199;23574;-74
2021/10/03 13:10:21;;;;;;;3.40;3.10;;;;;;;21.57;47.70;98509.26;235336;1193;24579;-73
2021/10/03 13:15:24;;;;;;;3.30;2.70;;;;;;;21.56;47.54;98514.92;235350;1200;22441;-73
2021/10/03 13:20:27;;;;;;;5.50;3.10;;;;;;;21.54;47.54;98507.83;235530;1199;24081;-73
2021/10/03 13:25:29;;;;;;;4.20;2.90;;;;;;;21.53;47.51;98505.94;235638;1200;24050;-73
2021/10/03 13:30:32;;;;;;;3.30;2.80;;;;;;;21.51;47.35;98507.91;235984;1199;25227;-73
2021/10/03 13:35:57;;;;;;;3.90;3.50;;;;;;;21.49;46.97;98508.34;236526;1193;24038;-72
2021/10/03 13:41:02;;;;;;;4.10;3.30;;;;;;;21.42;46.93;98505.52;236414;1199;23991;-71
2021/10/03 13:46:05;;;;;;;4.90;3.10;;;;;;;21.34;47.15;98503.70;236241;1193;22665;-73
2021/10/03 13:51:09;;;;;;;3.40;3.10;;;;;;;21.28;47.13;98502.98;236261;1186;24053;-75
2021/10/03 13:56:11;;;;;;;3.10;2.70;;;;;;;21.27;47.13;98503.81;236070;1199;24065;-73
2021/10/03 14:01:14;;;;;;;8.70;3.30;;;;;;;21.21;47.21;98504.98;236137;1199;24043;-74
2021/10/03 14:06:17;;;;;;;3.60;3.30;;;;;;;21.17;47.25;98501.20;235875;1199;24080;-72
2021/10/03 14:11:20;;;;;;;3.90;3.40;;;;;;;21.12;47.17;98500.94;235980;1199;25223;-74
2021/10/03 14:16:24;;;;;;;4.80;3.70;;;;;;;21.03;47.31;98493.66;236287;1197;25233;-74
2021/10/03 14:21:27;;;;;;;5.50;3.30;;;;;;;20.97;47.63;98492.88;236271;1199;22448;-73
2021/10/03 14:26:30;;;;;;;3.80;3.40;;;;;;;20.91;47.61;98490.59;236363;1199;25189;-73
2021/10/03 14:31:33;;;;;;;4.20;3.60;;;;;;;20.83;47.84;98491.55;236865;1199;24197;-73
2021/10/03 14:36:35;;;;;;;4.00;3.30;;;;;;;20.74;47.94;98480.52;236964;1199;24041;-74
2021/10/03 14:41:41;;;;;;;5.20;3.60;;;;;;;20.64;48.05;98486.23;236739;1193;22908;-75
2021/10/03 14:46:44;;;;;;;5.60;3.50;;;;;;;20.52;48.14;98488.35;236318;1198;22529;-73
2021/10/03 14:51:47;;;;;;;4.20;3.30;;;;;;;20.41;48.37;98497.11;235974;1199;24091;-74
2021/10/03 14:56:50;;;;;;;3.70;3.40;;;;;;;20.30;48.71;98504.14;236007;1200;24045;-74
2021/10/03 15:01:55;;;;;;;4.10;3.70;;;;;;;20.20;49.14;98511.23;235694;1200;22685;-74
2021/10/03 15:06:58;;;;;;;3.60;3.30;;;;;;;20.09;49.51;98519.11;236398;1199;23979;-71
2021/10/03 15:12:04;;;;;;;5.30;3.60;;;;;;;19.97;49.77;98519.09;235966;1177;24034;-74
2021/10/03 15:17:08;;;;;;;4.60;3.60;;;;;;;19.83;49.99;98526.87;236244;1198;22465;-71
2021/10/03 15:22:11;;;;;;;4.60;3.90;;;;;;;19.66;50.34;98526.80;235887;1200;24211;-74
2021/10/03 15:27:14;;;;;;;7.60;4.10;;;;;;;19.49;50.47;98536.67;236303;1199;24050;-73
2021/10/03 15:32:17;;;;;;;4.70;3.50;;;;;;;19.31;50.93;98542.85;236628;1194;25125;-73
2021/10/03 15:37:21;;;;;;;5.20;3.50;;;;;;;19.13;51.24;98543.05;236698;1193;24021;-73
2021/10/03 15:42:24;;;;;;;6.60;4.30;;;;;;;18.94;51.61;98543.76;236329;1193;22871;-71
2021/10/03 15:47:27;;;;;;;5.90;3.80;;;;;;;18.76;52.05;98556.98;236406;1186;24038;-71
2021/10/03 15:52:29;;;;;;;5.60;4.30;;;;;;;18.56;52.46;98554.93;236055;1177;25751;-72
2021/10/03 15:57:33;;;;;;;5.90;4.30;;;;;;;18.37;52.94;98561.77;236075;1199;24114;-73
2021/10/03 16:02:37;;;;;;;5.60;4.20;;;;;;;18.16;53.30;98570.59;235727;1199;22459;-74
2021/10/03 16:07:39;;;;;;;5.70;4.70;;;;;;;17.95;53.73;98571.88;235940;1199;25317;-72
2021/10/03 16:12:42;;;;;;;5.10;4.30;;;;;;;17.71;54.16;98577.27;235743;1198;24121;-72
2021/10/03 16:17:47;;;;;;;8.30;4.20;;;;;;;17.48;54.70;98583.36;235749;1199;22483;-72
2021/10/03 16:22:50;;;;;;;5.60;4.60;;;;;;;17.25;55.12;98586.65;235659;1192;24076;-73
2021/10/03 16:27:56;;;;;;;6.20;5.30;;;;;;;17.02;55.64;98589.08;235907;1199;24017;-73
2021/10/03 16:33:00;;;;;;;6.60;5.10;;;;;;;16.83;56.18;98594.86;236138;1192;22561;-72
2021/10/03 16:38:04;;;;;;;7.70;5.00;;;;;;;16.69;56.67;98589.65;235927;1199;24043;-74
2021/10/03 16:43:07;;;;;;;8.10;5.90;;;;;;;16.62;57.14;98589.39;235877;1194;22475;-72
2021/10/03 16:48:10;;;;;;;7.30;5.00;;;;;;;16.58;57.47;98589.59;235968;1199;25234;-72
2021/10/03 16:53:13;;;;;;;6.40;5.10;;;;;;;16.56;57.72;98588.43;235933;1199;24054;-74
2021/10/03 16:58:16;;;;;;;7.50;6.20;;;;;;;16.55;58.10;98583.77;235673;1200;22442;-74
2021/10/03 17:03:19;;;;;;;8.10;6.30;;;;;;;16.53;58.25;98581.76;235816;1199;24736;-74
2021/10/03 17:08:23;;;;;;;9.40;6.70;;;;;;;16.49;58.50;98576.36;236410;1185;24073;-71
2021/10/03 17:13:26;;;;;;;9.20;6.80;;;;;;;16.47;58.66;98576.75;235971;1199;22452;-74
2021/10/03 17:18:30;;;;;;;8.20;6.50;;;;;;;16.39;58.79;98571.98;236132;1199;22549;-73
2021/10/03 17:23:34;;;;;;;8.70;6.40;;;;;;;16.31;58.98;98568.52;236331;1199;22454;-71
2021/10/03 17:28:38;;;;;;;7.90;6.90;;;;;;;16.22;59.06;98569.67;236049;1199;26144;-72
2021/10/03 17:33:41;;;;;;;9.20;7.40;;;;;;;16.13;59.32;98566.34;235997;1199;25295;-73
2021/10/03 17:38:45;;;;;;;10.90;6.80;;;;;;;16.05;59.52;98569.02;235813;1193;25197;-74
2021/10/03 17:43:47;;;;;;;8.90;6.00;;;;;;;16.04;59.79;98565.33;236377;1199;24123;-73
2021/10/03 17:48:50;;;;;;;8.00;6.10;;;;;;;16.08;60.06;98563.71;235743;1199;22844;-73
2021/10/03 17:53:53;;;;;;;8.50;6.20;;;;;;;16.14;60.15;98565.07;236077;1199;22477;-73
2021/10/03 17:58:56;;;;;;;8.10;6.60;;;;;;;16.16;60.17;98556.81;236121;1199;22469;-71
2021/10/03 18:03:58;;;;;;;8.60;6.70;;;;;;;16.17;60.13;98563.77;236027;1199;24271;-74
2021/10/03 18:09:01;;;;;;;9.40;6.10;;;;;;;16.18;60.19;98568.41;236224;1193;24172;-72
2021/10/03 18:14:04;;;;;;;8.90;6.80;;;;;;;16.21;60.22;98567.86;235998;1193;24139;-72
2021/10/03 18:19:11;;;;;;;8.30;6.80;;;;;;;16.22;60.16;98573.46;235837;1193;24071;-74
2021/10/03 18:24:13;;;;;;;10.60;7.00;;;;;;;16.22;60.16;98577.80;235906;1193;22464;-72
2021/10/03 18:29:16;;;;;;;8.00;5.50;;;;;;;16.22;60.10;98576.13;235667;1186;24040;-73
2021/10/03 18:34:19;;;;;;;9.90;6.00;;;;;;;16.27;60.10;98574.34;235949;1200;24041;-74
2021/10/03 18:39:23;;;;;;;8.20;6.60;;;;;;;16.28;60.03;98579.23;235680;1193;24076;-74
2021/10/03 18:44:26;;;;;;;9.20;6.30;;;;;;;16.26;60.00;98579.63;235960;1192;22554;-71
2021/10/03 18:49:29;;;;;;;7.30;6.00;;;;;;;16.21;59.89;98578.39;236146;1193;25299;-71
2021/10/03 18:54:35;;;;;;;21.40;15.10;;;;;;;16.15;59.94;98575.98;235871;1199;25013;-74
2021/10/03 18:59:39;;;;;;;10.30;6.40;;;;;;;16.09;59.90;98576.94;235882;1199;24322;-74
2021/10/03 19:04:42;;;;;;;8.30;6.00;;;;;;;16.04;59.85;98579.31;236183;1199;22509;-73
2021/10/03 19:09:44;;;;;;;7.70;5.20;;;;;;;15.99;59.76;98586.84;235885;1199;22427;-73
2021/10/03 19:14:46;;;;;;;7.10;4.90;;;;;;;15.91;59.85;98592.63;235745;1193;25178;-73
2021/10/03 19:19:50;;;;;;;7.40;5.40;;;;;;;15.86;59.94;98589.13;235770;1193;24051;-71
2021/10/03 19:24:54;;;;;;;10.80;6.00;;;;;;;15.85;60.05;98593.55;235853;1193;24054;-72
2021/10/03 19:29:56;;;;;;;6.60;5.30;;;;;;;15.81;60.11;98597.73;236071;1193;22917;-73
2021/10/03 19:34:59;;;;;;;8.30;5.20;;;;;;;15.74;60.20;98596.74;235928;1193;24184;-74
2021/10/03 19:40:02;;;;;;;8.60;5.30;;;;;;;15.74;60.27;98599.12;236048;1194;25194;-73
2021/10/03 19:45:05;;;;;;;7.10;5.40;;;;;;;15.71;60.20;98597.88;235704;1200;22892;-73
2021/10/03 19:50:23;;;;;;;7.70;4.30;;;;;;;15.67;60.18;98600.24;235341;1200;22431;-73
2021/10/03 19:55:46;;;;;;;9.60;7.20;;;;;;;15.64;60.30;98603.91;235808;1193;22906;-74
2021/10/03 20:00:49;;;;;;;7.60;5.70;;;;;;;15.65;60.35;98600.92;236508;1199;24041;-73
2021/10/03 20:05:55;;;;;;;7.20;5.50;;;;;;;15.63;60.39;98606.33;236301;1193;25180;-74
2021/10/03 20:10:58;;;;;;;7.30;5.40;;;;;;;15.57;60.44;98608.52;236354;1193;25265;-74
2021/10/03 20:16:03;;;;;;;6.60;5.00;;;;;;;15.50;60.51;98614.17;236563;1199;22933;-74
2021/10/03 20:21:18;;;;;;;8.40;5.30;;;;;;;15.43;60.62;98623.52;236547;1199;22479;-74
2021/10/03 20:26:21;;;;;;;8.10;4.70;;;;;;;15.35;60.68;98621.54;236208;1199;22470;-74
2021/10/03 20:31:23;;;;;;;7.50;4.80;;;;;;;15.33;60.78;98628.28;235730;1193;24082;-74
2021/10/03 20:36:26;;;;;;;6.90;5.00;;;;;;;15.32;61.02;98625.98;236154;1199;24133;-73
2021/10/03 20:41:28;;;;;;;5.10;4.60;;;;;;;15.31;61.11;98618.27;236202;1199;24092;-72
2021/10/03 20:46:31;;;;;;;6.70;4.90;;;;;;;15.32;61.17;98617.84;235977;1200;24079;-75
2021/10/03 20:51:35;;;;;;;5.90;4.50;;;;;;;15.30;61.23;98619.00;235778;1199;25201;-74
2021/10/03 20:56:39;;;;;;;6.10;4.90;;;;;;;15.26;61.29;98617.06;236085;1193;24135;-72
2021/10/03 21:01:41;;;;;;;5.80;4.70;;;;;;;15.20;61.32;98614.23;235995;1193;22464;-72
2021/10/03 21:06:44;;;;;;;6.70;4.10;;;;;;;15.16;61.47;98623.56;236316;1195;22466;-72
2021/10/03 21:11:46;;;;;;;6.50;4.90;;;;;;;15.14;61.55;98621.65;235862;1199;22576;-74
2021/10/03 21:16:51;;;;;;;6.40;5.30;;;;;;;15.11;61.70;98623.78;235926;1186;24073;-74
2021/10/03 21:22:06;;;;;;;7.80;4.80;;;;;;;15.06;61.79;98624.58;236208;1193;24253;-74
2021/10/03 21:27:24;;;;;;;12.00;6.60;;;;;;;14.99;61.94;98624.13;235601;1193;24060;-72
2021/10/03 21:32:27;;;;;;;10.90;6.10;;;;;;;14.91;62.12;98623.93;235778;1199;24815;-72
2021/10/03 21:37:37;;;;;;;10.70;7.20;;;;;;;14.83;62.32;98619.21;236321;1199;22573;-72
2021/10/03 21:42:52;;;;;;;10.80;8.10;;;;;;;14.77;62.68;98623.13;235814;1199;24156;-73
2021/10/03 21:47:55;;;;;;;13.10;7.30;;;;;;;14.70;62.89;98621.65;236011;1193;24093;-73
2021/10/03 21:52:58;;;;;;;10.10;7.50;;;;;;;14.62;63.21;98620.23;235986;1184;24060;-74
2021/10/03 21:58:09;;;;;;;8.90;6.70;;;;;;;14.51;63.27;98623.98;236136;1199;22427;-73
2021/10/03 22:03:34;;;;;;;8.90;5.80;;;;;;;14.37;63.55;98618.80;236159;1193;22552;-72
2021/10/03 22:08:36;;;;;;;9.60;6.20;;;;;;;14.30;63.77;98620.04;236296;1199;24195;-73
2021/10/03 22:13:39;;;;;;;9.20;6.80;;;;;;;14.29;64.05;98615.83;236162;1199;24075;-73
2021/10/03 22:18:44;;;;;;;11.50;7.00;;;;;;;14.29;64.22;98615.13;235581;1199;24130;-72
2021/10/03 22:23:47;;;;;;;7.60;6.70;;;;;;;14.28;64.40;98616.64;236146;1194;22450;-72
2021/10/03 22:28:55;;;;;;;12.00;7.90;;;;;;;14.28;64.41;98615.73;236005;1199;24130;-71
2021/10/03 22:33:58;;;;;;;8.80;6.50;;;;;;;14.28;64.52;98615.70;236077;1199;23641;-71
2021/10/03 22:39:03;;;;;;;12.90;6.50;;;;;;;14.27;64.51;98612.46;235811;1199;22441;-71
2021/10/03 22:44:10;;;;;;;12.80;6.70;;;;;;;14.30;64.63;98610.50;235763;1193;22413;-74
2021/10/03 22:49:14;;;;;;;9.10;6.10;;;;;;;14.30;64.70;98607.36;235912;1200;24164;-71
2021/10/03 22:54:17;;;;;;;10.70;6.40;;;;;;;14.31;64.66;98604.76;236067;1199;25161;-72
2021/10/03 22:59:20;;;;;;;8.40;5.40;;;;;;;14.31;64.71;98604.70;235800;1199;24225;-75
2021/10/03 23:04:24;;;;;;;8.20;5.70;;;;;;;14.32;64.64;98606.45;235967;1199;24057;-76
2021/10/03 23:09:28;;;;;;;9.10;6.70;;;;;;;14.32;64.70;98605.27;236194;1198;22531;-74
2021/10/03 23:14:31;;;;;;;8.70;6.40;;;;;;;14.32;64.98;98605.05;235692;1200;22456;-73
2021/10/03 23:19:34;;;;;;;9.40;7.10;;;;;;;14.31;64.91;98603.31;235938;1193;24152;-73
2021/10/03 23:24:37;;;;;;;9.90;7.30;;;;;;;14.11;64.52;98609.52;236162;1192;25201;-73
2021/10/03 23:29:39;;;;;;;10.30;5.70;;;;;;;13.80;64.63;98612.78;235729;1196;22467;-73
2021/10/03 23:34:43;;;;;;;11.90;7.40;;;;;;;13.50;64.98;98612.92;235630;1200;24052;-73